createdAt,value
2022-09-11T00:02:40.645Z,8.23
2022-09-11T00:05:29.533Z,5.13
2022-09-11T00:08:19.946Z,5.20
2022-09-11T00:11:08.867Z,6.47
2022-09-11T00:13:56.513Z,7.07
2022-09-11T00:16:45.953Z,7.15
2022-09-11T00:19:33.189Z,6.35
2022-09-11T00:22:22.003Z,5.25
2022-09-11T00:25:10.038Z,4.80
2022-09-11T00:27:57.274Z,6.63
2022-09-11T00:30:45.339Z,5.90
2022-09-11T00:33:33.509Z,6.60
2022-09-11T00:36:22.799Z,13.65
2022-09-11T00:39:14.198Z,18.00
2022-09-11T00:42:02.110Z,23.10
2022-09-11T00:45:02.458Z,26.65
2022-09-11T00:47:51.514Z,23.45
2022-09-11T00:50:38.541Z,21.75
2022-09-11T00:53:30.284Z,21.88
2022-09-11T00:56:19.946Z,20.50
2022-09-11T00:59:07.773Z,18.63
2022-09-11T01:01:55.386Z,16.65
2022-09-11T01:04:42.531Z,21.42
2022-09-11T01:07:31.267Z,25.30
2022-09-11T01:10:19.087Z,31.75
2022-09-11T01:13:17.523Z,27.60
2022-09-11T01:16:14.160Z,34.15
2022-09-11T01:19:08.658Z,33.92
2022-09-11T01:22:18.226Z,34.65
2022-09-11T01:25:19.305Z,33.22
2022-09-11T01:28:11.559Z,37.45
2022-09-11T01:31:05.021Z,37.50
2022-09-11T01:33:59.538Z,36.78
2022-09-11T01:36:53.695Z,40.40
2022-09-11T01:39:44.797Z,39.85
2022-09-11T01:42:38.021Z,40.65
2022-09-11T01:45:28.002Z,39.83
2022-09-11T01:48:19.376Z,37.25
2022-09-11T01:51:08.313Z,35.22
2022-09-11T01:53:57.222Z,36.72
2022-09-11T01:56:48.578Z,32.88
2022-09-11T01:59:42.108Z,33.35
2022-09-11T02:02:36.681Z,32.08
2022-09-11T02:05:28.938Z,30.20
2022-09-11T02:08:19.577Z,29.02
2022-09-11T02:11:09.134Z,29.02
2022-09-11T02:14:05.335Z,31.15
2022-09-11T02:17:01.917Z,29.00
2022-09-11T02:19:50.550Z,29.73
2022-09-11T02:22:38.316Z,33.33
2022-09-11T02:25:25.562Z,34.75
2022-09-11T02:28:16.751Z,30.63
2022-09-11T02:31:04.142Z,34.38
2022-09-11T02:33:52.257Z,31.05
2022-09-11T02:36:57.275Z,29.08
2022-09-11T02:40:27.082Z,26.73
2022-09-11T02:43:32.707Z,25.85
2022-09-11T02:46:38.889Z,26.42
2022-09-11T02:49:40.571Z,28.75
2022-09-11T02:52:44.915Z,22.65
2022-09-11T02:55:45.703Z,25.50
2022-09-11T02:58:37.419Z,24.20
2022-09-11T03:01:24.930Z,27.20
2022-09-11T03:04:12.714Z,30.40
2022-09-11T03:07:00.434Z,31.15
2022-09-11T03:09:49.246Z,28.20
2022-09-11T03:12:41.409Z,24.02
2022-09-11T03:15:30.321Z,25.85
2022-09-11T03:18:17.594Z,19.13
2022-09-11T03:21:05.777Z,19.05
2022-09-11T03:23:52.699Z,15.50
2022-09-11T03:26:41.497Z,11.20
2022-09-11T03:29:31.649Z,11.60
2022-09-11T03:32:21.139Z,9.13
2022-09-11T03:35:09.445Z,13.05
2022-09-11T03:37:58.001Z,9.65
2022-09-11T03:40:45.329Z,10.40
2022-09-11T03:43:35.097Z,10.00
2022-09-11T03:46:23.742Z,12.15
2022-09-11T03:49:11.121Z,11.02
2022-09-11T03:51:58.983Z,12.38
2022-09-11T03:54:47.613Z,10.70
2022-09-11T03:57:35.130Z,11.98
2022-09-11T04:00:23.764Z,14.73
2022-09-11T04:03:16.757Z,12.65
2022-09-11T04:06:04.989Z,12.95
2022-09-11T04:08:54.157Z,17.52
2022-09-11T04:11:41.393Z,24.48
2022-09-11T04:14:35.654Z,22.33
2022-09-11T04:17:25.417Z,24.13
2022-09-11T04:20:13.932Z,23.67
2022-09-11T04:23:02.943Z,27.98
2022-09-11T04:25:52.357Z,25.40
2022-09-11T04:28:40.090Z,29.17
2022-09-11T04:31:28.342Z,25.85
2022-09-11T04:34:17.874Z,30.25
2022-09-11T04:37:06.064Z,26.85
2022-09-11T04:39:54.167Z,25.33
2022-09-11T04:42:41.899Z,22.52
2022-09-11T04:45:33.587Z,18.00
2022-09-11T04:48:23.171Z,17.88
2022-09-11T04:51:12.343Z,16.92
2022-09-11T04:54:01.126Z,17.45
2022-09-11T04:56:57.933Z,20.30
2022-09-11T04:59:45.137Z,19.80
2022-09-11T05:02:33.644Z,20.10
2022-09-11T05:05:21.323Z,21.98
2022-09-11T05:08:11.485Z,23.35
2022-09-11T05:10:59.978Z,29.77
2022-09-11T05:13:47.505Z,24.52
2022-09-11T05:16:36.034Z,25.50
2022-09-11T05:19:23.527Z,24.10
2022-09-11T05:22:10.801Z,25.83
2022-09-11T05:25:03.503Z,24.27
2022-09-11T05:27:50.717Z,25.30
2022-09-11T05:30:37.804Z,24.02
2022-09-11T05:33:26.225Z,24.80
2022-09-11T05:36:15.190Z,26.42
2022-09-11T05:39:03.630Z,26.20
2022-09-11T05:41:55.251Z,26.63
2022-09-11T05:44:47.179Z,26.45
2022-09-11T05:47:34.486Z,22.73
2022-09-11T05:50:21.895Z,23.25
2022-09-11T05:53:09.239Z,23.10
2022-09-11T05:55:56.684Z,22.27
2022-09-11T05:58:47.137Z,27.17
2022-09-11T06:01:35.463Z,23.30
2022-09-11T06:04:31.432Z,24.05
2022-09-11T06:07:19.963Z,30.65
2022-09-11T06:10:10.145Z,29.77
2022-09-11T06:12:58.002Z,32.20
2022-09-11T06:15:47.443Z,30.75
2022-09-11T06:18:35.035Z,30.17
2022-09-11T06:21:24.579Z,32.35
2022-09-11T06:24:22.577Z,31.95
2022-09-11T06:27:10.080Z,30.48
2022-09-11T06:30:00.930Z,33.97
2022-09-11T06:32:56.505Z,34.42
2022-09-11T06:35:45.801Z,29.27
2022-09-11T06:38:33.513Z,30.15
2022-09-11T06:41:22.244Z,27.80
2022-09-11T06:44:10.265Z,27.40
2022-09-11T06:46:59.327Z,25.88
2022-09-11T06:49:48.941Z,21.88
2022-09-11T06:52:56.286Z,24.40
2022-09-11T06:55:47.684Z,26.58
2022-09-11T06:58:37.197Z,25.33
2022-09-11T07:01:25.267Z,24.48
2022-09-11T07:04:20.048Z,24.88
2022-09-11T07:07:10.554Z,22.30
2022-09-11T07:10:01.065Z,21.27
2022-09-11T07:12:48.589Z,21.55
2022-09-11T07:15:36.146Z,19.65
2022-09-11T07:18:23.367Z,20.30
2022-09-11T07:21:12.221Z,21.70
2022-09-11T07:24:02.262Z,19.02
2022-09-11T07:26:54.803Z,20.80
2022-09-11T07:29:47.926Z,17.30
2022-09-11T07:32:35.314Z,19.50
2022-09-11T07:35:22.657Z,21.27
2022-09-11T07:38:12.931Z,19.70
2022-09-11T07:41:02.710Z,16.30
2022-09-11T07:43:53.776Z,16.42
2022-09-11T07:46:41.497Z,16.55
2022-09-11T07:49:30.641Z,12.45
2022-09-11T07:52:20.553Z,15.43
2022-09-11T07:55:14.530Z,14.45
2022-09-11T07:58:03.181Z,14.07
2022-09-11T08:00:50.354Z,10.23
2022-09-11T08:03:40.314Z,14.07
2022-09-11T08:06:28.601Z,15.70
2022-09-11T08:09:20.188Z,12.82
2022-09-11T08:12:13.828Z,12.65
2022-09-11T08:15:02.572Z,12.20
2022-09-11T08:17:51.933Z,11.45
2022-09-11T08:20:39.197Z,11.32
2022-09-11T08:23:26.493Z,11.75
2022-09-11T08:26:16.229Z,14.82
2022-09-11T08:29:03.304Z,13.45
2022-09-11T08:31:53.694Z,10.10
2022-09-11T08:34:42.689Z,11.98
2022-09-11T08:37:29.642Z,12.23
2022-09-11T08:40:16.992Z,10.70
2022-09-11T08:43:05.742Z,14.15
2022-09-11T08:46:00.161Z,12.25
2022-09-11T08:48:58.109Z,12.20
2022-09-11T08:51:47.191Z,10.13
2022-09-11T08:54:37.945Z,12.63
2022-09-11T08:57:35.045Z,13.75
2022-09-11T09:00:24.954Z,11.88
2022-09-11T09:03:31.668Z,9.07
2022-09-11T09:06:41.615Z,8.95
2022-09-11T09:09:40.325Z,11.98
2022-09-11T09:12:34.071Z,12.00
2022-09-11T09:15:32.548Z,10.02
2022-09-11T09:18:27.979Z,9.52
2022-09-11T09:21:21.846Z,9.80
2022-09-11T09:24:19.380Z,11.80
2022-09-11T09:27:17.039Z,12.15
2022-09-11T09:30:08.010Z,8.50
2022-09-11T09:33:01.677Z,8.63
2022-09-11T09:35:50.273Z,8.85
2022-09-11T09:38:41.332Z,10.05
2022-09-11T09:41:56.827Z,8.52
2022-09-11T09:45:02.351Z,8.13
2022-09-11T09:47:50.361Z,10.23
2022-09-11T09:50:40.629Z,6.82
2022-09-11T09:53:34.413Z,11.07
2022-09-11T09:56:23.679Z,8.93
2022-09-11T09:59:19.482Z,9.00
2022-09-11T10:02:07.869Z,10.10
2022-09-11T10:05:08.621Z,8.90
2022-09-11T10:07:58.050Z,8.35
2022-09-11T10:10:45.053Z,9.70
2022-09-11T10:13:34.201Z,10.68
2022-09-11T10:16:25.224Z,7.97
2022-09-11T10:19:40.599Z,8.05
2022-09-11T10:22:30.801Z,7.25
2022-09-11T10:25:19.709Z,8.48
2022-09-11T10:28:12.789Z,10.93
2022-09-11T10:31:03.152Z,9.55
2022-09-11T10:33:56.459Z,11.07
2022-09-11T10:36:53.922Z,11.30
2022-09-11T10:39:43.014Z,7.88
2022-09-11T10:42:31.732Z,11.38
2022-09-11T10:45:21.937Z,8.40
2022-09-11T10:48:19.227Z,9.48
2022-09-11T10:51:11.791Z,9.90
2022-09-11T10:54:07.488Z,8.20
2022-09-11T10:57:05.452Z,7.72
2022-09-11T11:00:07.624Z,7.28
2022-09-11T11:02:56.967Z,6.18
2022-09-11T11:05:53.843Z,6.80
2022-09-11T11:09:09.096Z,7.78
2022-09-11T11:12:09.710Z,8.90
2022-09-11T11:15:13.647Z,8.32
2022-09-11T11:18:19.718Z,10.50
2022-09-11T11:21:18.191Z,7.68
2022-09-11T11:24:26.893Z,6.03
2022-09-11T11:27:39.821Z,10.18
2022-09-11T11:30:32.241Z,8.77
2022-09-11T11:33:33.786Z,6.82
2022-09-11T11:36:27.092Z,5.72
2022-09-11T11:39:25.055Z,6.05
2022-09-11T11:42:17.129Z,8.20
2022-09-11T11:45:08.943Z,6.82
2022-09-11T11:47:56.633Z,6.35
2022-09-11T11:50:48.086Z,7.65
2022-09-11T11:53:39.945Z,5.85
2022-09-11T11:56:36.052Z,7.70
2022-09-11T11:59:32.073Z,7.20
2022-09-11T12:02:24.704Z,5.68
2022-09-11T12:05:17.135Z,6.05
2022-09-11T12:08:04.695Z,5.95
2022-09-11T12:10:57.206Z,8.63
2022-09-11T12:13:48.793Z,5.45
2022-09-11T12:16:37.720Z,4.88
2022-09-11T12:19:26.156Z,5.10
2022-09-11T12:22:14.404Z,6.10
2022-09-11T12:25:03.308Z,4.32
2022-09-11T12:28:09.203Z,4.38
2022-09-11T12:31:03.325Z,3.95
2022-09-11T12:33:54.461Z,4.32
2022-09-11T12:36:53.782Z,3.95
2022-09-11T12:39:50.941Z,4.35
2022-09-11T12:42:55.142Z,3.50
2022-09-11T12:45:43.688Z,3.45
2022-09-11T12:48:39.329Z,4.53
2022-09-11T12:51:29.969Z,5.22
2022-09-11T12:54:22.833Z,5.97
2022-09-11T12:57:16.888Z,4.55
2022-09-11T13:00:07.992Z,3.58
2022-09-11T13:02:57.522Z,3.63
2022-09-11T13:05:55.220Z,4.07
2022-09-11T13:08:49.903Z,4.55
2022-09-11T13:11:40.193Z,3.83
2022-09-11T13:14:51.604Z,3.47
2022-09-11T13:17:47.176Z,3.15
2022-09-11T13:20:34.201Z,3.33
2022-09-11T13:23:22.687Z,3.55
2022-09-11T13:26:21.390Z,3.60
2022-09-11T13:29:15.099Z,3.35
2022-09-11T13:32:08.265Z,4.28
2022-09-11T13:34:58.701Z,3.30
2022-09-11T13:37:54.386Z,3.58
2022-09-11T13:40:47.021Z,3.30
2022-09-11T13:43:37.832Z,4.70
2022-09-11T13:46:27.888Z,3.50
2022-09-11T13:49:28.488Z,3.47
2022-09-11T13:52:16.343Z,3.28
2022-09-11T13:55:10.587Z,3.53
2022-09-11T13:58:00.867Z,3.45
2022-09-11T14:00:50.178Z,4.03
2022-09-11T14:03:38.248Z,3.75
2022-09-11T14:06:25.326Z,4.72
2022-09-11T14:09:19.423Z,3.92
2022-09-11T14:12:07.464Z,3.25
2022-09-11T14:14:59.494Z,3.40
2022-09-11T14:17:46.905Z,2.88
2022-09-11T14:20:34.405Z,2.45
2022-09-11T14:23:25.152Z,2.63
2022-09-11T14:26:17.697Z,3.42
2022-09-11T14:29:25.978Z,2.60
2022-09-11T14:32:31.620Z,2.40
2022-09-11T14:35:18.419Z,2.75
2022-09-11T14:38:05.578Z,2.40
2022-09-11T14:40:57.167Z,2.25
2022-09-11T14:43:48.872Z,2.20
2022-09-11T14:46:37.058Z,2.85
2022-09-11T14:49:25.572Z,2.50
2022-09-11T14:52:14.367Z,2.10
2022-09-11T14:55:02.169Z,2.30
2022-09-11T14:57:49.582Z,3.33
2022-09-11T15:00:36.895Z,3.10
2022-09-11T15:03:25.259Z,5.57
2022-09-11T15:06:20.490Z,2.40
2022-09-11T15:09:07.666Z,3.53
2022-09-11T15:11:55.043Z,4.55
2022-09-11T15:14:56.670Z,2.88
2022-09-11T15:17:46.115Z,2.70
2022-09-11T15:20:33.331Z,2.65
2022-09-11T15:23:21.973Z,3.20
2022-09-11T15:26:11.818Z,2.80
2022-09-11T15:28:58.931Z,2.95
2022-09-11T15:31:47.262Z,3.88
2022-09-11T15:34:34.725Z,3.45
2022-09-11T15:37:23.591Z,3.00
2022-09-11T15:40:12.955Z,3.45
2022-09-11T15:42:59.988Z,3.28
2022-09-11T15:45:47.298Z,3.33
2022-09-11T15:48:34.592Z,9.10
2022-09-11T15:51:24.592Z,8.35
2022-09-11T15:54:13.505Z,9.05
2022-09-11T15:57:02.175Z,4.93
2022-09-11T15:59:51.561Z,3.97
2022-09-11T16:02:38.753Z,3.53
2022-09-11T16:05:26.054Z,3.50
2022-09-11T16:08:15.277Z,2.72
2022-09-11T16:11:04.987Z,3.15
2022-09-11T16:13:54.909Z,2.30
2022-09-11T16:16:42.166Z,5.18
2022-09-11T16:19:30.872Z,2.47
2022-09-11T16:22:17.987Z,2.33
2022-09-11T16:25:06.100Z,2.42
2022-09-11T16:27:53.423Z,1.92
2022-09-11T16:30:45.677Z,1.80
2022-09-11T16:33:37.635Z,1.70
2022-09-11T16:36:25.276Z,1.73
2022-09-11T16:39:13.794Z,2.15
2022-09-11T16:42:02.079Z,2.30
2022-09-11T16:44:49.771Z,3.55
2022-09-11T16:47:38.111Z,3.40
2022-09-11T16:50:25.496Z,2.40
2022-09-11T16:53:13.876Z,1.98
2022-09-11T16:56:04.554Z,2.03
2022-09-11T16:58:51.708Z,1.80
2022-09-11T17:01:39.935Z,2.03
2022-09-11T17:04:28.674Z,1.83
2022-09-11T17:07:15.682Z,2.00
2022-09-11T17:10:02.713Z,2.17
2022-09-11T17:12:51.004Z,4.47
2022-09-11T17:15:38.077Z,1.90
2022-09-11T17:18:25.433Z,2.15
2022-09-11T17:21:14.492Z,2.33
2022-09-11T17:24:01.862Z,2.15
2022-09-11T17:26:50.655Z,2.03
2022-09-11T17:29:42.425Z,2.20
2022-09-11T17:32:31.534Z,2.80
2022-09-11T17:35:19.739Z,3.10
2022-09-11T17:38:09.299Z,3.25
2022-09-11T17:40:57.755Z,2.45
2022-09-11T17:43:45.318Z,3.08
2022-09-11T17:46:33.496Z,2.50
2022-09-11T17:49:20.948Z,2.40
2022-09-11T17:52:08.293Z,1.92
2022-09-11T17:54:56.953Z,2.53
2022-09-11T17:57:45.406Z,2.30
2022-09-11T18:00:32.465Z,2.40
2022-09-11T18:03:22.754Z,2.53
2022-09-11T18:06:19.615Z,3.22
2022-09-11T18:09:11.950Z,2.90
2022-09-11T18:12:03.433Z,2.22
2022-09-11T18:14:52.995Z,4.22
2022-09-11T18:17:40.253Z,2.97
2022-09-11T18:20:27.628Z,3.30
2022-09-11T18:23:16.589Z,3.10
2022-09-11T18:26:03.577Z,7.53
2022-09-11T18:28:56.378Z,4.03
2022-09-11T18:31:45.825Z,5.38
2022-09-11T18:34:33.067Z,5.07
2022-09-11T18:37:22.297Z,4.20
2022-09-11T18:40:09.769Z,3.50
2022-09-11T18:42:56.906Z,4.40
2022-09-11T18:45:45.390Z,4.53
2022-09-11T18:48:32.619Z,4.90
2022-09-11T18:51:20.574Z,4.70
2022-09-11T18:54:07.643Z,4.78
2022-09-11T18:56:54.612Z,5.95
2022-09-11T18:59:42.002Z,4.65
2022-09-11T19:02:30.598Z,5.68
2022-09-11T19:05:18.716Z,6.95
2022-09-11T19:08:06.029Z,5.47
2022-09-11T19:10:53.020Z,4.75
2022-09-11T19:13:40.949Z,5.20
2022-09-11T19:16:28.414Z,5.22
2022-09-11T19:19:17.216Z,5.55
2022-09-11T19:22:04.491Z,5.25
2022-09-11T19:24:52.108Z,4.57
2022-09-11T19:27:39.193Z,4.88
2022-09-11T19:30:26.091Z,5.47
2022-09-11T19:33:13.346Z,5.80
2022-09-11T19:36:04.395Z,6.00
2022-09-11T19:38:52.923Z,6.45
2022-09-11T19:41:40.824Z,6.22
2022-09-11T19:44:27.678Z,6.85
2022-09-11T19:47:14.764Z,7.63
2022-09-11T19:50:02.256Z,8.55
2022-09-11T19:52:50.847Z,9.52
2022-09-11T19:55:38.047Z,9.95
2022-09-11T19:58:25.925Z,10.98
2022-09-11T20:01:14.604Z,9.00
2022-09-11T20:04:02.165Z,8.20
2022-09-11T20:09:36.900Z,7.63
2022-09-11T20:12:24.274Z,9.05
2022-09-11T20:15:12.366Z,7.22
2022-09-11T20:18:00.433Z,9.30
2022-09-11T20:20:47.500Z,8.10
2022-09-11T20:23:35.106Z,10.27
2022-09-11T20:26:25.665Z,9.70
2022-09-11T20:29:14.855Z,7.50
2022-09-11T20:32:02.041Z,6.75
2022-09-11T20:34:49.261Z,7.22
2022-09-11T20:37:36.391Z,7.32
2022-09-11T20:40:23.334Z,5.78
2022-09-11T20:43:11.887Z,6.45
2022-09-11T20:46:00.498Z,6.40
2022-09-11T20:48:49.993Z,7.30
2022-09-11T20:51:36.922Z,5.78
2022-09-11T20:54:24.239Z,6.72
2022-09-11T20:57:11.640Z,6.82
2022-09-11T21:00:00.769Z,7.72
2022-09-11T21:02:47.962Z,5.97
2022-09-11T21:05:36.491Z,6.28
2022-09-11T21:08:25.483Z,6.20
2022-09-11T21:11:13.360Z,5.75
2022-09-11T21:14:01.044Z,6.88
2022-09-11T21:16:49.467Z,5.68
2022-09-11T21:19:36.589Z,6.63
2022-09-11T21:22:23.838Z,6.38
2022-09-11T21:25:11.367Z,7.82
2022-09-11T21:27:59.144Z,5.85
2022-09-11T21:30:46.414Z,6.78
2022-09-11T21:33:35.334Z,9.45
2022-09-11T21:36:23.022Z,5.68
2022-09-11T21:39:10.277Z,5.88
2022-09-11T21:41:57.495Z,6.00
2022-09-11T21:44:44.781Z,5.82
2022-09-11T21:47:32.164Z,6.90
2022-09-11T21:50:21.088Z,5.00
2022-09-11T21:53:09.280Z,6.43
2022-09-11T21:55:56.645Z,5.65
2022-09-11T21:58:43.838Z,5.63
2022-09-11T22:01:32.601Z,6.22
2022-09-11T22:04:19.742Z,5.30
2022-09-11T22:07:08.319Z,6.07
2022-09-11T22:09:55.631Z,8.30
2022-09-11T22:12:42.656Z,6.05
2022-09-11T22:15:29.894Z,5.35
2022-09-11T22:18:18.478Z,5.65
2022-09-11T22:21:06.010Z,5.07
2022-09-11T22:23:55.267Z,5.65
2022-09-11T22:26:42.439Z,5.88
2022-09-11T22:29:29.745Z,6.40
2022-09-11T22:32:16.885Z,5.47
2022-09-11T22:35:04.270Z,5.32
2022-09-11T22:37:51.273Z,6.82
2022-09-11T22:40:39.704Z,7.25
2022-09-11T22:43:27.054Z,7.55
2022-09-11T22:46:14.420Z,5.10
2022-09-11T22:49:03.309Z,6.53
2022-09-11T22:51:50.430Z,6.90
2022-09-11T22:54:37.857Z,4.72
2022-09-11T22:57:29.094Z,3.58
2022-09-11T23:00:19.663Z,3.80
2022-09-11T23:03:06.539Z,3.90
2022-09-11T23:06:14.500Z,3.10
2022-09-11T23:09:03.447Z,3.13
2022-09-11T23:11:50.315Z,3.17
2022-09-11T23:14:38.790Z,3.50
2022-09-11T23:17:26.350Z,3.42
2022-09-11T23:20:13.876Z,2.92
2022-09-11T23:23:03.521Z,2.90
2022-09-11T23:25:50.930Z,2.72
2022-09-11T23:28:38.814Z,3.22
2022-09-11T23:31:29.811Z,4.38
2022-09-11T23:34:17.823Z,3.13
2022-09-11T23:37:05.103Z,3.72
2022-09-11T23:39:52.373Z,3.22
2022-09-11T23:42:39.201Z,2.97
2022-09-11T23:45:26.728Z,3.35
2022-09-11T23:48:15.030Z,2.95
2022-09-11T23:51:02.747Z,3.20
2022-09-11T23:53:51.646Z,3.47
2022-09-11T23:56:38.978Z,2.78
2022-09-11T23:59:26.606Z,5.90
